sensor_id;sensor_type;location;lat;lon;timestamp;P1;durP1;ratioP1;P2;durP2;ratioP2
4138;SDS011;2083;51.034;6.996;2022-08-03T00:01:28;21.10;;;4.77;;
4138;SDS011;2083;51.034;6.996;2022-08-03T00:03:54;5.50;;;4.97;;
4138;SDS011;2083;51.034;6.996;2022-08-03T00:06:20;8.03;;;5.07;;
4138;SDS011;2083;51.034;6.996;2022-08-03T00:08:46;6.10;;;4.80;;
4138;SDS011;2083;51.034;6.996;2022-08-03T00:11:12;6.00;;;4.03;;
4138;SDS011;2083;51.034;6.996;2022-08-03T00:13:38;6.20;;;5.40;;
4138;SDS011;2083;51.034;6.996;2022-08-03T00:16:04;5.10;;;4.60;;
4138;SDS011;2083;51.034;6.996;2022-08-03T00:18:30;6.10;;;4.20;;
4138;SDS011;2083;51.034;6.996;2022-08-03T00:20:56;6.50;;;4.07;;
4138;SDS011;2083;51.034;6.996;2022-08-03T00:23:22;5.60;;;4.57;;
4138;SDS011;2083;51.034;6.996;2022-08-03T00:25:48;5.97;;;4.70;;
4138;SDS011;2083;51.034;6.996;2022-08-03T00:28:14;8.50;;;4.83;;
4138;SDS011;2083;51.034;6.996;2022-08-03T00:30:40;5.20;;;4.50;;
4138;SDS011;2083;51.034;6.996;2022-08-03T00:33:06;4.87;;;4.47;;
4138;SDS011;2083;51.034;6.996;2022-08-03T00:35:34;9.00;;;5.10;;
4138;SDS011;2083;51.034;6.996;2022-08-03T00:38:00;4.60;;;4.30;;
4138;SDS011;2083;51.034;6.996;2022-08-03T00:40:26;5.30;;;4.40;;
4138;SDS011;2083;51.034;6.996;2022-08-03T00:42:59;8.43;;;4.57;;
4138;SDS011;2083;51.034;6.996;2022-08-03T00:45:26;7.20;;;4.30;;
4138;SDS011;2083;51.034;6.996;2022-08-03T00:47:53;5.63;;;5.10;;
4138;SDS011;2083;51.034;6.996;2022-08-03T00:50:20;8.03;;;4.40;;
4138;SDS011;2083;51.034;6.996;2022-08-03T00:52:47;9.00;;;4.43;;
4138;SDS011;2083;51.034;6.996;2022-08-03T00:55:13;5.00;;;4.60;;
4138;SDS011;2083;51.034;6.996;2022-08-03T00:57:40;4.40;;;4.00;;
4138;SDS011;2083;51.034;6.996;2022-08-03T01:00:07;11.27;;;4.67;;
4138;SDS011;2083;51.034;6.996;2022-08-03T01:02:34;5.03;;;4.53;;
4138;SDS011;2083;51.034;6.996;2022-08-03T01:05:00;5.07;;;4.53;;
4138;SDS011;2083;51.034;6.996;2022-08-03T01:07:29;4.47;;;4.10;;
4138;SDS011;2083;51.034;6.996;2022-08-03T01:12:31;4.87;;;4.57;;
4138;SDS011;2083;51.034;6.996;2022-08-03T01:18:04;5.57;;;5.10;;
4138;SDS011;2083;51.034;6.996;2022-08-03T01:20:32;7.27;;;5.47;;
4138;SDS011;2083;51.034;6.996;2022-08-03T01:30:56;5.70;;;5.20;;
4138;SDS011;2083;51.034;6.996;2022-08-03T01:33:25;4.00;;;3.80;;
4138;SDS011;2083;51.034;6.996;2022-08-03T01:36:15;4.20;;;3.83;;
4138;SDS011;2083;51.034;6.996;2022-08-03T01:38:40;14.63;;;4.70;;
4138;SDS011;2083;51.034;6.996;2022-08-03T01:41:09;4.60;;;4.20;;
4138;SDS011;2083;51.034;6.996;2022-08-03T01:43:36;5.30;;;4.90;;
4138;SDS011;2083;51.034;6.996;2022-08-03T01:46:03;5.00;;;4.50;;
4138;SDS011;2083;51.034;6.996;2022-08-03T01:48:29;4.80;;;4.40;;
4138;SDS011;2083;51.034;6.996;2022-08-03T01:50:56;5.33;;;4.57;;
4138;SDS011;2083;51.034;6.996;2022-08-03T01:53:24;7.73;;;5.00;;
4138;SDS011;2083;51.034;6.996;2022-08-03T01:55:51;4.70;;;4.40;;
4138;SDS011;2083;51.034;6.996;2022-08-03T01:58:18;5.47;;;4.97;;
4138;SDS011;2083;51.034;6.996;2022-08-03T02:00:45;4.43;;;4.23;;
4138;SDS011;2083;51.034;6.996;2022-08-03T02:03:12;5.17;;;4.67;;
4138;SDS011;2083;51.034;6.996;2022-08-03T02:05:39;8.50;;;4.67;;
4138;SDS011;2083;51.034;6.996;2022-08-03T02:08:06;6.93;;;4.10;;
4138;SDS011;2083;51.034;6.996;2022-08-03T02:10:34;4.80;;;4.40;;
4138;SDS011;2083;51.034;6.996;2022-08-03T02:13:00;4.70;;;4.27;;
4138;SDS011;2083;51.034;6.996;2022-08-03T02:15:27;4.40;;;4.10;;
4138;SDS011;2083;51.034;6.996;2022-08-03T02:17:55;4.27;;;4.07;;
4138;SDS011;2083;51.034;6.996;2022-08-03T02:20:22;4.40;;;4.10;;
4138;SDS011;2083;51.034;6.996;2022-08-03T02:22:48;4.40;;;4.17;;
4138;SDS011;2083;51.034;6.996;2022-08-03T02:25:14;7.93;;;5.00;;
4138;SDS011;2083;51.034;6.996;2022-08-03T02:27:50;3.83;;;3.63;;
4138;SDS011;2083;51.034;6.996;2022-08-03T02:30:19;4.07;;;3.87;;
4138;SDS011;2083;51.034;6.996;2022-08-03T02:32:47;7.03;;;4.17;;
4138;SDS011;2083;51.034;6.996;2022-08-03T02:35:16;4.73;;;4.43;;
4138;SDS011;2083;51.034;6.996;2022-08-03T02:37:45;13.47;;;5.23;;
4138;SDS011;2083;51.034;6.996;2022-08-03T02:40:11;7.80;;;4.43;;
4138;SDS011;2083;51.034;6.996;2022-08-03T02:42:38;5.37;;;4.87;;
4138;SDS011;2083;51.034;6.996;2022-08-03T02:45:05;6.93;;;5.20;;
4138;SDS011;2083;51.034;6.996;2022-08-03T02:47:32;3.97;;;3.70;;
4138;SDS011;2083;51.034;6.996;2022-08-03T02:49:59;4.23;;;4.00;;
4138;SDS011;2083;51.034;6.996;2022-08-03T02:52:27;6.10;;;4.07;;
4138;SDS011;2083;51.034;6.996;2022-08-03T02:54:55;4.70;;;4.50;;
4138;SDS011;2083;51.034;6.996;2022-08-03T02:57:22;4.93;;;4.33;;
4138;SDS011;2083;51.034;6.996;2022-08-03T02:59:50;4.80;;;4.40;;
4138;SDS011;2083;51.034;6.996;2022-08-03T03:02:17;4.50;;;4.27;;
4138;SDS011;2083;51.034;6.996;2022-08-03T03:04:43;5.70;;;4.27;;
4138;SDS011;2083;51.034;6.996;2022-08-03T03:07:10;4.23;;;4.03;;
4138;SDS011;2083;51.034;6.996;2022-08-03T03:09:36;5.03;;;4.63;;
4138;SDS011;2083;51.034;6.996;2022-08-03T03:12:02;5.30;;;4.80;;
4138;SDS011;2083;51.034;6.996;2022-08-03T03:14:29;6.37;;;4.40;;
4138;SDS011;2083;51.034;6.996;2022-08-03T03:16:55;4.77;;;4.33;;
4138;SDS011;2083;51.034;6.996;2022-08-03T03:19:22;4.53;;;4.30;;
4138;SDS011;2083;51.034;6.996;2022-08-03T03:21:49;4.93;;;4.50;;
4138;SDS011;2083;51.034;6.996;2022-08-03T03:24:15;4.60;;;4.30;;
4138;SDS011;2083;51.034;6.996;2022-08-03T03:26:41;4.90;;;4.40;;
4138;SDS011;2083;51.034;6.996;2022-08-03T03:29:08;4.80;;;4.40;;
4138;SDS011;2083;51.034;6.996;2022-08-03T03:31:34;5.33;;;4.97;;
4138;SDS011;2083;51.034;6.996;2022-08-03T03:34:01;4.17;;;3.97;;
4138;SDS011;2083;51.034;6.996;2022-08-03T03:36:27;4.13;;;3.83;;
4138;SDS011;2083;51.034;6.996;2022-08-03T03:38:53;4.60;;;4.10;;
4138;SDS011;2083;51.034;6.996;2022-08-03T03:41:19;4.73;;;4.43;;
4138;SDS011;2083;51.034;6.996;2022-08-03T03:43:45;4.53;;;4.37;;
4138;SDS011;2083;51.034;6.996;2022-08-03T03:46:12;5.57;;;4.70;;
4138;SDS011;2083;51.034;6.996;2022-08-03T03:48:38;4.90;;;4.60;;
4138;SDS011;2083;51.034;6.996;2022-08-03T03:51:04;4.83;;;4.43;;
4138;SDS011;2083;51.034;6.996;2022-08-03T03:53:31;4.90;;;4.70;;
4138;SDS011;2083;51.034;6.996;2022-08-03T03:55:57;4.97;;;4.67;;
4138;SDS011;2083;51.034;6.996;2022-08-03T03:58:23;4.97;;;4.43;;
4138;SDS011;2083;51.034;6.996;2022-08-03T04:00:49;5.00;;;4.60;;
4138;SDS011;2083;51.034;6.996;2022-08-03T04:03:17;4.30;;;4.10;;
4138;SDS011;2083;51.034;6.996;2022-08-03T04:05:43;5.10;;;4.63;;
4138;SDS011;2083;51.034;6.996;2022-08-03T04:08:28;4.70;;;4.50;;
4138;SDS011;2083;51.034;6.996;2022-08-03T04:11:26;4.37;;;4.17;;
4138;SDS011;2083;51.034;6.996;2022-08-03T04:16:29;5.17;;;4.83;;
4138;SDS011;2083;51.034;6.996;2022-08-03T04:19:01;8.30;;;4.80;;
4138;SDS011;2083;51.034;6.996;2022-08-03T04:21:27;6.33;;;4.50;;
4138;SDS011;2083;51.034;6.996;2022-08-03T04:23:56;5.37;;;5.03;;
4138;SDS011;2083;51.034;6.996;2022-08-03T04:26:23;5.30;;;4.50;;
4138;SDS011;2083;51.034;6.996;2022-08-03T04:28:50;4.87;;;4.60;;
4138;SDS011;2083;51.034;6.996;2022-08-03T04:31:17;4.37;;;4.17;;
4138;SDS011;2083;51.034;6.996;2022-08-03T04:33:43;5.80;;;5.00;;
4138;SDS011;2083;51.034;6.996;2022-08-03T04:36:10;5.33;;;4.93;;
4138;SDS011;2083;51.034;6.996;2022-08-03T04:38:38;5.70;;;5.20;;
4138;SDS011;2083;51.034;6.996;2022-08-03T04:41:05;4.93;;;4.60;;
4138;SDS011;2083;51.034;6.996;2022-08-03T04:43:32;5.60;;;5.00;;
4138;SDS011;2083;51.034;6.996;2022-08-03T04:45:58;5.10;;;4.70;;
4138;SDS011;2083;51.034;6.996;2022-08-03T04:48:24;13.03;;;5.67;;
4138;SDS011;2083;51.034;6.996;2022-08-03T04:50:50;4.90;;;4.60;;
4138;SDS011;2083;51.034;6.996;2022-08-03T04:53:17;4.53;;;4.03;;
4138;SDS011;2083;51.034;6.996;2022-08-03T04:55:43;5.07;;;4.57;;
4138;SDS011;2083;51.034;6.996;2022-08-03T04:58:09;4.73;;;4.43;;
4138;SDS011;2083;51.034;6.996;2022-08-03T05:00:36;4.67;;;4.37;;
4138;SDS011;2083;51.034;6.996;2022-08-03T05:03:02;7.50;;;6.90;;
4138;SDS011;2083;51.034;6.996;2022-08-03T05:05:28;11.63;;;4.57;;
4138;SDS011;2083;51.034;6.996;2022-08-03T05:07:54;4.97;;;4.57;;
4138;SDS011;2083;51.034;6.996;2022-08-03T05:10:20;6.90;;;4.40;;
4138;SDS011;2083;51.034;6.996;2022-08-03T05:12:46;6.53;;;4.53;;
4138;SDS011;2083;51.034;6.996;2022-08-03T05:15:12;4.87;;;4.37;;
4138;SDS011;2083;51.034;6.996;2022-08-03T05:17:39;7.40;;;4.50;;
4138;SDS011;2083;51.034;6.996;2022-08-03T05:20:05;10.83;;;4.10;;
4138;SDS011;2083;51.034;6.996;2022-08-03T05:22:31;4.43;;;4.13;;
4138;SDS011;2083;51.034;6.996;2022-08-03T05:24:57;3.90;;;3.70;;
4138;SDS011;2083;51.034;6.996;2022-08-03T05:27:23;8.60;;;4.13;;
4138;SDS011;2083;51.034;6.996;2022-08-03T05:29:49;5.10;;;4.60;;
4138;SDS011;2083;51.034;6.996;2022-08-03T05:32:16;3.67;;;3.43;;
4138;SDS011;2083;51.034;6.996;2022-08-03T05:34:42;4.03;;;3.63;;
4138;SDS011;2083;51.034;6.996;2022-08-03T05:37:08;4.03;;;3.73;;
4138;SDS011;2083;51.034;6.996;2022-08-03T05:39:35;7.90;;;4.73;;
4138;SDS011;2083;51.034;6.996;2022-08-03T05:42:01;4.17;;;3.87;;
4138;SDS011;2083;51.034;6.996;2022-08-03T05:44:27;8.27;;;3.60;;
4138;SDS011;2083;51.034;6.996;2022-08-03T05:46:54;3.43;;;3.23;;
4138;SDS011;2083;51.034;6.996;2022-08-03T05:49:20;3.93;;;3.63;;
4138;SDS011;2083;51.034;6.996;2022-08-03T05:51:46;4.20;;;3.77;;
4138;SDS011;2083;51.034;6.996;2022-08-03T05:54:12;5.10;;;3.80;;
4138;SDS011;2083;51.034;6.996;2022-08-03T05:56:38;3.60;;;3.40;;
4138;SDS011;2083;51.034;6.996;2022-08-03T05:59:07;7.77;;;4.10;;
4138;SDS011;2083;51.034;6.996;2022-08-03T06:01:33;4.87;;;3.40;;
4138;SDS011;2083;51.034;6.996;2022-08-03T06:03:59;3.27;;;2.87;;
4138;SDS011;2083;51.034;6.996;2022-08-03T06:06:25;4.60;;;4.17;;
4138;SDS011;2083;51.034;6.996;2022-08-03T06:08:51;4.17;;;3.77;;
4138;SDS011;2083;51.034;6.996;2022-08-03T06:11:18;4.20;;;3.70;;
4138;SDS011;2083;51.034;6.996;2022-08-03T06:13:44;4.27;;;3.53;;
4138;SDS011;2083;51.034;6.996;2022-08-03T06:16:10;4.60;;;4.30;;
4138;SDS011;2083;51.034;6.996;2022-08-03T06:18:36;4.40;;;4.20;;
4138;SDS011;2083;51.034;6.996;2022-08-03T06:21:02;4.53;;;4.13;;
4138;SDS011;2083;51.034;6.996;2022-08-03T06:23:28;4.40;;;3.87;;
4138;SDS011;2083;51.034;6.996;2022-08-03T06:25:54;4.03;;;3.83;;
4138;SDS011;2083;51.034;6.996;2022-08-03T06:28:20;3.60;;;3.40;;
4138;SDS011;2083;51.034;6.996;2022-08-03T06:30:46;4.73;;;4.43;;
4138;SDS011;2083;51.034;6.996;2022-08-03T06:33:13;6.37;;;4.00;;
4138;SDS011;2083;51.034;6.996;2022-08-03T06:35:39;4.13;;;3.83;;
4138;SDS011;2083;51.034;6.996;2022-08-03T06:38:05;3.57;;;3.47;;
4138;SDS011;2083;51.034;6.996;2022-08-03T06:40:31;5.43;;;3.90;;
4138;SDS011;2083;51.034;6.996;2022-08-03T06:43:03;3.90;;;3.60;;
4138;SDS011;2083;51.034;6.996;2022-08-03T06:45:29;3.10;;;3.00;;
4138;SDS011;2083;51.034;6.996;2022-08-03T06:47:59;6.90;;;3.30;;
4138;SDS011;2083;51.034;6.996;2022-08-03T06:50:26;3.50;;;3.30;;
4138;SDS011;2083;51.034;6.996;2022-08-03T06:52:52;3.63;;;3.33;;
4138;SDS011;2083;51.034;6.996;2022-08-03T06:55:18;3.53;;;3.37;;
4138;SDS011;2083;51.034;6.996;2022-08-03T06:57:44;3.20;;;2.90;;
4138;SDS011;2083;51.034;6.996;2022-08-03T07:00:10;3.20;;;3.10;;
4138;SDS011;2083;51.034;6.996;2022-08-03T07:02:36;5.83;;;3.07;;
4138;SDS011;2083;51.034;6.996;2022-08-03T07:05:03;2.97;;;2.87;;
4138;SDS011;2083;51.034;6.996;2022-08-03T07:07:29;2.50;;;2.30;;
4138;SDS011;2083;51.034;6.996;2022-08-03T07:09:55;3.17;;;2.97;;
4138;SDS011;2083;51.034;6.996;2022-08-03T07:12:21;4.87;;;2.97;;
4138;SDS011;2083;51.034;6.996;2022-08-03T07:14:47;2.57;;;2.47;;
4138;SDS011;2083;51.034;6.996;2022-08-03T07:17:13;2.73;;;2.53;;
4138;SDS011;2083;51.034;6.996;2022-08-03T07:19:39;14.83;;;3.30;;
4138;SDS011;2083;51.034;6.996;2022-08-03T07:22:05;2.57;;;2.47;;
4138;SDS011;2083;51.034;6.996;2022-08-03T07:24:32;6.83;;;3.03;;
4138;SDS011;2083;51.034;6.996;2022-08-03T07:26:58;2.63;;;2.50;;
4138;SDS011;2083;51.034;6.996;2022-08-03T07:29:24;4.50;;;3.33;;
4138;SDS011;2083;51.034;6.996;2022-08-03T07:31:50;3.63;;;2.47;;
4138;SDS011;2083;51.034;6.996;2022-08-03T07:34:16;3.20;;;2.73;;
4138;SDS011;2083;51.034;6.996;2022-08-03T07:36:42;2.80;;;2.40;;
4138;SDS011;2083;51.034;6.996;2022-08-03T07:39:08;2.87;;;2.60;;
4138;SDS011;2083;51.034;6.996;2022-08-03T07:41:34;9.43;;;2.43;;
4138;SDS011;2083;51.034;6.996;2022-08-03T07:44:02;2.80;;;2.60;;
4138;SDS011;2083;51.034;6.996;2022-08-03T07:46:28;2.47;;;2.27;;
4138;SDS011;2083;51.034;6.996;2022-08-03T07:48:54;10.07;;;2.00;;
4138;SDS011;2083;51.034;6.996;2022-08-03T07:51:20;4.50;;;3.00;;
4138;SDS011;2083;51.034;6.996;2022-08-03T07:53:46;5.00;;;2.30;;
4138;SDS011;2083;51.034;6.996;2022-08-03T07:56:12;12.53;;;2.57;;
4138;SDS011;2083;51.034;6.996;2022-08-03T07:58:38;2.47;;;2.37;;
4138;SDS011;2083;51.034;6.996;2022-08-03T08:01:04;3.10;;;2.00;;
4138;SDS011;2083;51.034;6.996;2022-08-03T08:03:31;4.93;;;2.53;;
4138;SDS011;2083;51.034;6.996;2022-08-03T08:05:57;2.40;;;2.20;;
4138;SDS011;2083;51.034;6.996;2022-08-03T08:08:23;3.63;;;2.23;;
4138;SDS011;2083;51.034;6.996;2022-08-03T08:10:48;3.40;;;2.27;;
4138;SDS011;2083;51.034;6.996;2022-08-03T08:13:14;5.73;;;2.50;;
4138;SDS011;2083;51.034;6.996;2022-08-03T08:15:40;4.20;;;2.70;;
4138;SDS011;2083;51.034;6.996;2022-08-03T08:18:06;7.07;;;2.20;;
4138;SDS011;2083;51.034;6.996;2022-08-03T08:20:33;2.07;;;1.97;;
4138;SDS011;2083;51.034;6.996;2022-08-03T08:23:00;11.77;;;2.10;;
4138;SDS011;2083;51.034;6.996;2022-08-03T08:25:26;2.77;;;2.40;;
4138;SDS011;2083;51.034;6.996;2022-08-03T08:27:52;3.93;;;2.30;;
4138;SDS011;2083;51.034;6.996;2022-08-03T08:30:19;7.57;;;2.03;;
4138;SDS011;2083;51.034;6.996;2022-08-03T08:32:46;15.77;;;2.20;;
4138;SDS011;2083;51.034;6.996;2022-08-03T08:35:12;2.10;;;1.67;;
4138;SDS011;2083;51.034;6.996;2022-08-03T08:37:38;6.60;;;1.80;;
4138;SDS011;2083;51.034;6.996;2022-08-03T08:40:05;3.70;;;1.50;;
4138;SDS011;2083;51.034;6.996;2022-08-03T08:42:31;1.50;;;1.40;;
4138;SDS011;2083;51.034;6.996;2022-08-03T08:44:59;1.77;;;1.67;;
4138;SDS011;2083;51.034;6.996;2022-08-03T08:47:28;2.23;;;1.67;;
4138;SDS011;2083;51.034;6.996;2022-08-03T08:49:54;4.90;;;1.80;;
4138;SDS011;2083;51.034;6.996;2022-08-03T08:52:23;5.40;;;2.30;;
4138;SDS011;2083;51.034;6.996;2022-08-03T08:54:49;1.90;;;1.80;;
4138;SDS011;2083;51.034;6.996;2022-08-03T08:57:16;2.60;;;1.80;;
4138;SDS011;2083;51.034;6.996;2022-08-03T08:59:43;3.70;;;1.50;;
4138;SDS011;2083;51.034;6.996;2022-08-03T09:02:09;8.60;;;1.70;;
4138;SDS011;2083;51.034;6.996;2022-08-03T09:04:36;3.40;;;1.23;;
4138;SDS011;2083;51.034;6.996;2022-08-03T09:07:03;7.30;;;1.60;;
4138;SDS011;2083;51.034;6.996;2022-08-03T09:09:30;5.27;;;1.30;;
4138;SDS011;2083;51.034;6.996;2022-08-03T09:11:56;7.40;;;1.10;;
4138;SDS011;2083;51.034;6.996;2022-08-03T09:14:22;2.53;;;1.90;;
4138;SDS011;2083;51.034;6.996;2022-08-03T09:16:54;2.07;;;1.20;;
4138;SDS011;2083;51.034;6.996;2022-08-03T09:19:23;4.70;;;0.90;;
4138;SDS011;2083;51.034;6.996;2022-08-03T09:22:05;1.20;;;1.20;;
4138;SDS011;2083;51.034;6.996;2022-08-03T09:24:32;10.13;;;1.33;;
4138;SDS011;2083;51.034;6.996;2022-08-03T09:26:58;2.20;;;1.53;;
4138;SDS011;2083;51.034;6.996;2022-08-03T09:29:24;1.67;;;1.57;;
4138;SDS011;2083;51.034;6.996;2022-08-03T09:31:55;4.20;;;1.93;;
4138;SDS011;2083;51.034;6.996;2022-08-03T09:34:24;1.93;;;1.37;;
4138;SDS011;2083;51.034;6.996;2022-08-03T09:36:52;1.33;;;1.20;;
4138;SDS011;2083;51.034;6.996;2022-08-03T09:39:20;1.93;;;1.57;;
4138;SDS011;2083;51.034;6.996;2022-08-03T09:41:47;2.93;;;1.70;;
4138;SDS011;2083;51.034;6.996;2022-08-03T09:44:13;7.13;;;1.67;;
4138;SDS011;2083;51.034;6.996;2022-08-03T09:46:49;2.00;;;1.73;;
4138;SDS011;2083;51.034;6.996;2022-08-03T09:49:15;2.97;;;1.70;;
4138;SDS011;2083;51.034;6.996;2022-08-03T09:51:41;4.23;;;1.73;;
4138;SDS011;2083;51.034;6.996;2022-08-03T09:54:08;7.83;;;2.47;;
4138;SDS011;2083;51.034;6.996;2022-08-03T09:56:43;11.27;;;2.10;;
4138;SDS011;2083;51.034;6.996;2022-08-03T09:59:10;1.60;;;1.50;;
4138;SDS011;2083;51.034;6.996;2022-08-03T10:01:36;1.67;;;1.57;;
4138;SDS011;2083;51.034;6.996;2022-08-03T10:04:05;1.30;;;1.20;;
4138;SDS011;2083;51.034;6.996;2022-08-03T10:06:36;4.20;;;1.40;;
4138;SDS011;2083;51.034;6.996;2022-08-03T10:11:31;1.90;;;1.40;;
4138;SDS011;2083;51.034;6.996;2022-08-03T10:13:59;4.50;;;1.70;;
4138;SDS011;2083;51.034;6.996;2022-08-03T10:16:27;3.93;;;1.20;;
4138;SDS011;2083;51.034;6.996;2022-08-03T10:18:57;2.70;;;1.60;;
4138;SDS011;2083;51.034;6.996;2022-08-03T10:21:23;12.57;;;1.93;;
4138;SDS011;2083;51.034;6.996;2022-08-03T10:23:49;3.90;;;1.43;;
4138;SDS011;2083;51.034;6.996;2022-08-03T10:26:18;1.00;;;1.00;;
4138;SDS011;2083;51.034;6.996;2022-08-03T10:28:48;1.23;;;0.97;;
4138;SDS011;2083;51.034;6.996;2022-08-03T10:31:15;2.60;;;1.30;;
4138;SDS011;2083;51.034;6.996;2022-08-03T10:33:41;6.83;;;1.43;;
4138;SDS011;2083;51.034;6.996;2022-08-03T10:36:08;1.43;;;1.27;;
4138;SDS011;2083;51.034;6.996;2022-08-03T10:38:46;0.80;;;0.80;;
4138;SDS011;2083;51.034;6.996;2022-08-03T10:41:16;0.93;;;0.83;;
4138;SDS011;2083;51.034;6.996;2022-08-03T10:43:58;1.60;;;0.60;;
4138;SDS011;2083;51.034;6.996;2022-08-03T10:46:27;1.60;;;0.80;;
4138;SDS011;2083;51.034;6.996;2022-08-03T10:48:53;0.70;;;0.70;;
4138;SDS011;2083;51.034;6.996;2022-08-03T10:51:20;0.83;;;0.80;;
4138;SDS011;2083;51.034;6.996;2022-08-03T10:53:46;3.57;;;0.90;;
4138;SDS011;2083;51.034;6.996;2022-08-03T10:56:36;2.50;;;0.90;;
4138;SDS011;2083;51.034;6.996;2022-08-03T11:02:06;1.33;;;1.00;;
4138;SDS011;2083;51.034;6.996;2022-08-03T11:04:33;2.70;;;0.97;;
4138;SDS011;2083;51.034;6.996;2022-08-03T11:09:44;2.37;;;0.90;;
4138;SDS011;2083;51.034;6.996;2022-08-03T11:12:30;3.10;;;0.80;;
4138;SDS011;2083;51.034;6.996;2022-08-03T11:15:04;7.60;;;1.33;;
4138;SDS011;2083;51.034;6.996;2022-08-03T11:17:31;5.53;;;1.10;;
4138;SDS011;2083;51.034;6.996;2022-08-03T11:19:58;6.00;;;0.80;;
4138;SDS011;2083;51.034;6.996;2022-08-03T11:22:24;4.30;;;0.80;;
4138;SDS011;2083;51.034;6.996;2022-08-03T11:27:24;1.43;;;0.70;;
4138;SDS011;2083;51.034;6.996;2022-08-03T11:30:01;2.30;;;1.67;;
4138;SDS011;2083;51.034;6.996;2022-08-03T11:35:06;2.40;;;1.20;;
4138;SDS011;2083;51.034;6.996;2022-08-03T11:37:32;4.43;;;1.33;;
4138;SDS011;2083;51.034;6.996;2022-08-03T11:39:58;2.40;;;1.00;;
4138;SDS011;2083;51.034;6.996;2022-08-03T11:44:55;2.37;;;0.90;;
4138;SDS011;2083;51.034;6.996;2022-08-03T11:47:21;2.33;;;1.23;;
4138;SDS011;2083;51.034;6.996;2022-08-03T11:49:48;2.60;;;0.77;;
4138;SDS011;2083;51.034;6.996;2022-08-03T11:52:15;0.73;;;0.73;;
4138;SDS011;2083;51.034;6.996;2022-08-03T11:54:41;7.80;;;1.77;;
4138;SDS011;2083;51.034;6.996;2022-08-03T11:57:07;4.07;;;1.20;;
4138;SDS011;2083;51.034;6.996;2022-08-03T11:59:33;13.97;;;1.70;;
4138;SDS011;2083;51.034;6.996;2022-08-03T12:02:10;2.27;;;1.57;;
4138;SDS011;2083;51.034;6.996;2022-08-03T12:07:36;1.23;;;1.10;;
4138;SDS011;2083;51.034;6.996;2022-08-03T12:10:11;3.20;;;1.90;;
4138;SDS011;2083;51.034;6.996;2022-08-03T12:12:38;13.23;;;1.40;;
4138;SDS011;2083;51.034;6.996;2022-08-03T12:15:05;6.40;;;1.47;;
4138;SDS011;2083;51.034;6.996;2022-08-03T12:17:32;6.63;;;1.27;;
4138;SDS011;2083;51.034;6.996;2022-08-03T12:19:58;1.87;;;1.23;;
4138;SDS011;2083;51.034;6.996;2022-08-03T12:22:34;5.17;;;1.60;;
4138;SDS011;2083;51.034;6.996;2022-08-03T12:25:01;7.33;;;1.67;;
4138;SDS011;2083;51.034;6.996;2022-08-03T12:27:27;5.43;;;1.40;;
4138;SDS011;2083;51.034;6.996;2022-08-03T12:29:56;11.67;;;1.60;;
4138;SDS011;2083;51.034;6.996;2022-08-03T12:32:23;2.33;;;1.67;;
4138;SDS011;2083;51.034;6.996;2022-08-03T12:34:52;4.07;;;1.90;;
4138;SDS011;2083;51.034;6.996;2022-08-03T12:37:19;2.53;;;1.70;;
4138;SDS011;2083;51.034;6.996;2022-08-03T12:39:52;3.67;;;1.07;;
4138;SDS011;2083;51.034;6.996;2022-08-03T12:42:18;3.27;;;1.50;;
4138;SDS011;2083;51.034;6.996;2022-08-03T12:44:45;4.10;;;1.20;;
4138;SDS011;2083;51.034;6.996;2022-08-03T12:47:13;4.13;;;2.20;;
4138;SDS011;2083;51.034;6.996;2022-08-03T12:49:52;6.10;;;1.40;;
4138;SDS011;2083;51.034;6.996;2022-08-03T12:52:21;5.47;;;1.10;;
4138;SDS011;2083;51.034;6.996;2022-08-03T12:55:05;5.27;;;2.00;;
4138;SDS011;2083;51.034;6.996;2022-08-03T12:57:40;5.33;;;1.53;;
4138;SDS011;2083;51.034;6.996;2022-08-03T13:00:13;5.20;;;1.37;;
4138;SDS011;2083;51.034;6.996;2022-08-03T13:02:40;2.17;;;1.40;;
4138;SDS011;2083;51.034;6.996;2022-08-03T13:05:12;4.03;;;1.40;;
4138;SDS011;2083;51.034;6.996;2022-08-03T13:07:47;2.27;;;1.20;;
4138;SDS011;2083;51.034;6.996;2022-08-03T13:10:26;2.47;;;1.40;;
4138;SDS011;2083;51.034;6.996;2022-08-03T13:12:52;5.10;;;1.53;;
4138;SDS011;2083;51.034;6.996;2022-08-03T13:15:18;2.40;;;1.20;;
4138;SDS011;2083;51.034;6.996;2022-08-03T13:17:44;6.20;;;1.50;;
4138;SDS011;2083;51.034;6.996;2022-08-03T13:20:10;3.57;;;1.47;;
4138;SDS011;2083;51.034;6.996;2022-08-03T13:22:36;1.70;;;1.50;;
4138;SDS011;2083;51.034;6.996;2022-08-03T13:25:02;2.43;;;1.40;;
4138;SDS011;2083;51.034;6.996;2022-08-03T13:27:28;4.40;;;1.40;;
4138;SDS011;2083;51.034;6.996;2022-08-03T13:29:55;4.70;;;2.07;;
4138;SDS011;2083;51.034;6.996;2022-08-03T13:32:21;5.17;;;1.60;;
4138;SDS011;2083;51.034;6.996;2022-08-03T13:34:48;2.33;;;1.13;;
4138;SDS011;2083;51.034;6.996;2022-08-03T13:37:14;3.57;;;1.50;;
4138;SDS011;2083;51.034;6.996;2022-08-03T13:39:40;2.70;;;1.50;;
4138;SDS011;2083;51.034;6.996;2022-08-03T13:42:06;6.70;;;1.53;;
4138;SDS011;2083;51.034;6.996;2022-08-03T13:44:32;2.03;;;1.40;;
4138;SDS011;2083;51.034;6.996;2022-08-03T13:47:00;3.47;;;1.43;;
4138;SDS011;2083;51.034;6.996;2022-08-03T13:49:26;1.80;;;1.33;;
4138;SDS011;2083;51.034;6.996;2022-08-03T13:51:53;2.30;;;1.50;;
4138;SDS011;2083;51.034;6.996;2022-08-03T13:54:19;1.13;;;1.10;;
4138;SDS011;2083;51.034;6.996;2022-08-03T13:56:45;3.10;;;1.23;;
4138;SDS011;2083;51.034;6.996;2022-08-03T13:59:16;1.30;;;1.20;;
4138;SDS011;2083;51.034;6.996;2022-08-03T14:01:43;3.13;;;1.23;;
4138;SDS011;2083;51.034;6.996;2022-08-03T14:04:09;11.20;;;1.70;;
4138;SDS011;2083;51.034;6.996;2022-08-03T14:06:35;5.87;;;1.60;;
4138;SDS011;2083;51.034;6.996;2022-08-03T14:09:01;3.80;;;1.20;;
4138;SDS011;2083;51.034;6.996;2022-08-03T14:11:27;6.50;;;1.30;;
4138;SDS011;2083;51.034;6.996;2022-08-03T14:13:53;1.53;;;1.23;;
4138;SDS011;2083;51.034;6.996;2022-08-03T14:16:19;4.10;;;1.60;;
4138;SDS011;2083;51.034;6.996;2022-08-03T14:18:45;2.20;;;1.70;;
4138;SDS011;2083;51.034;6.996;2022-08-03T14:21:11;2.60;;;1.60;;
4138;SDS011;2083;51.034;6.996;2022-08-03T14:23:37;7.00;;;1.37;;
4138;SDS011;2083;51.034;6.996;2022-08-03T14:26:04;5.33;;;1.50;;
4138;SDS011;2083;51.034;6.996;2022-08-03T14:28:30;10.87;;;3.93;;
4138;SDS011;2083;51.034;6.996;2022-08-03T14:30:57;1.90;;;1.40;;
4138;SDS011;2083;51.034;6.996;2022-08-03T14:33:23;10.80;;;1.50;;
4138;SDS011;2083;51.034;6.996;2022-08-03T14:35:49;2.30;;;1.53;;
4138;SDS011;2083;51.034;6.996;2022-08-03T14:38:16;6.70;;;1.70;;
4138;SDS011;2083;51.034;6.996;2022-08-03T14:40:42;2.20;;;1.37;;
4138;SDS011;2083;51.034;6.996;2022-08-03T14:43:08;4.60;;;1.60;;
4138;SDS011;2083;51.034;6.996;2022-08-03T14:45:34;2.60;;;1.70;;
4138;SDS011;2083;51.034;6.996;2022-08-03T14:48:00;6.43;;;1.70;;
4138;SDS011;2083;51.034;6.996;2022-08-03T14:50:28;7.10;;;1.67;;
4138;SDS011;2083;51.034;6.996;2022-08-03T14:52:54;2.30;;;1.17;;
4138;SDS011;2083;51.034;6.996;2022-08-03T14:55:20;1.83;;;1.40;;
4138;SDS011;2083;51.034;6.996;2022-08-03T14:57:46;1.70;;;1.10;;
4138;SDS011;2083;51.034;6.996;2022-08-03T15:00:12;15.77;;;1.77;;
4138;SDS011;2083;51.034;6.996;2022-08-03T15:02:38;2.40;;;1.57;;
4138;SDS011;2083;51.034;6.996;2022-08-03T15:05:04;8.03;;;1.40;;
4138;SDS011;2083;51.034;6.996;2022-08-03T15:07:30;18.07;;;1.53;;
4138;SDS011;2083;51.034;6.996;2022-08-03T15:09:56;3.53;;;1.60;;
4138;SDS011;2083;51.034;6.996;2022-08-03T15:12:23;2.23;;;1.30;;
4138;SDS011;2083;51.034;6.996;2022-08-03T15:14:49;15.07;;;1.30;;
4138;SDS011;2083;51.034;6.996;2022-08-03T15:17:15;5.70;;;1.70;;
4138;SDS011;2083;51.034;6.996;2022-08-03T15:19:41;3.57;;;1.67;;
4138;SDS011;2083;51.034;6.996;2022-08-03T15:22:07;3.57;;;1.30;;
4138;SDS011;2083;51.034;6.996;2022-08-03T15:24:33;6.23;;;1.40;;
4138;SDS011;2083;51.034;6.996;2022-08-03T15:26:59;3.63;;;1.47;;
4138;SDS011;2083;51.034;6.996;2022-08-03T15:29:25;3.20;;;1.43;;
4138;SDS011;2083;51.034;6.996;2022-08-03T15:31:51;9.53;;;1.67;;
4138;SDS011;2083;51.034;6.996;2022-08-03T15:34:17;3.63;;;1.70;;
4138;SDS011;2083;51.034;6.996;2022-08-03T15:36:43;1.43;;;1.33;;
4138;SDS011;2083;51.034;6.996;2022-08-03T15:39:09;2.30;;;2.10;;
4138;SDS011;2083;51.034;6.996;2022-08-03T15:41:35;2.60;;;1.63;;
4138;SDS011;2083;51.034;6.996;2022-08-03T15:44:01;3.87;;;1.30;;
4138;SDS011;2083;51.034;6.996;2022-08-03T15:46:27;8.63;;;1.80;;
4138;SDS011;2083;51.034;6.996;2022-08-03T15:48:53;4.83;;;1.90;;
4138;SDS011;2083;51.034;6.996;2022-08-03T15:51:19;5.70;;;1.80;;